Time;durP1;ratioP1;P1;durP2;ratioP2;P2;SDS_P1;SDS_P2;PMS_P1;PMS_P2;Temp;Humidity;BMP_temperature;BMP_pressure;BME280_temperature;BME280_humidity;BME280_pressure;Samples;Min_cycle;Max_cycle;Signal;HPM_P1;HPM_P2
2022/10/24 00:02:05;;;;;;;3.60;1.10;;;18.00;85.30;;;;;;5097596;28;20182;-47
2022/10/24 00:04:35;;;;;;;3.20;1.43;;;17.90;85.30;;;;;;5098328;28;20418;-47
2022/10/24 00:07:00;;;;;;;3.40;1.43;;;18.00;85.50;;;;;;5098137;28;20563;-46
2022/10/24 00:09:26;;;;;;;4.60;1.43;;;17.90;85.50;;;;;;5097660;28;20530;-46
2022/10/24 00:11:51;;;;;;;3.60;1.30;;;17.90;85.60;;;;;;5098229;28;20466;-44
2022/10/24 00:14:17;;;;;;;4.13;1.23;;;17.90;85.70;;;;;;5098000;28;20181;-46
2022/10/24 00:16:43;;;;;;;7.03;1.90;;;17.80;85.70;;;;;;5098434;28;20179;-47
2022/10/24 00:19:08;;;;;;;5.80;1.60;;;17.80;85.80;;;;;;5097768;28;20259;-46
2022/10/24 00:21:34;;;;;;;4.33;1.70;;;17.80;85.90;;;;;;5098495;28;20215;-47
2022/10/24 00:24:00;;;;;;;5.30;1.57;;;17.80;86.10;;;;;;5097406;28;20459;-47
2022/10/24 00:26:25;;;;;;;3.40;1.53;;;17.70;86.00;;;;;;5078823;28;20238;-46
2022/10/24 00:28:51;;;;;;;4.27;1.80;;;17.70;86.20;;;;;;5098512;28;20210;-47
2022/10/24 00:31:18;;;;;;;4.20;1.43;;;17.70;86.30;;;;;;5097744;28;20213;-46
2022/10/24 00:33:44;;;;;;;6.10;2.00;;;17.70;86.40;;;;;;5098334;28;20218;-44
2022/10/24 00:36:11;;;;;;;2.73;1.13;;;17.60;86.50;;;;;;5098299;28;20436;-46
2022/10/24 00:38:37;;;;;;;4.50;1.60;;;17.60;86.60;;;;;;5097909;28;20409;-45
2022/10/24 00:41:03;;;;;;;4.73;1.87;;;17.60;86.70;;;;;;5096555;28;20458;-44
2022/10/24 00:43:28;;;;;;;5.57;1.73;;;17.60;86.90;;;;;;5097950;28;20411;-47
2022/10/24 00:45:59;;;;;;;5.17;2.20;;;17.60;87.10;;;;;;5098046;28;20524;-49
2022/10/24 00:48:42;;;;;;;5.13;2.33;;;17.50;87.10;;;;;;5098027;28;20237;-45
2022/10/24 00:51:12;;;;;;;5.60;1.80;;;17.50;87.30;;;;;;5096559;28;20430;-46
2022/10/24 00:53:43;;;;;;;4.80;1.57;;;17.50;87.50;;;;;;5097303;28;20413;-46
2022/10/24 00:56:11;;;;;;;4.37;1.80;;;17.50;87.60;;;;;;5097503;28;20487;-46
2022/10/24 00:58:37;;;;;;;3.00;1.20;;;17.50;87.70;;;;;;5096849;28;20420;-46
2022/10/24 01:01:04;;;;;;;3.53;1.50;;;17.40;87.70;;;;;;5097440;28;20428;-45
2022/10/24 01:03:31;;;;;;;4.53;1.53;;;17.40;87.80;;;;;;5096346;28;20452;-45
2022/10/24 01:06:23;;;;;;;8.83;2.23;;;17.40;87.90;;;;;;5095834;28;20431;-47
2022/10/24 01:08:49;;;;;;;4.13;1.50;;;17.30;87.90;;;;;;5096529;28;20455;-45
2022/10/24 01:11:38;;;;;;;4.43;1.33;;;17.30;87.90;;;;;;5095505;28;20775;-46
2022/10/24 01:14:26;;;;;;;5.47;1.60;;;17.30;88.00;;;;;;5097223;28;20579;-45
2022/10/24 01:17:03;;;;;;;4.30;1.93;;;17.30;88.10;;;;;;5097774;28;20419;-45
2022/10/24 01:19:46;;;;;;;3.70;1.43;;;17.30;88.20;;;;;;5097209;28;20408;-44
2022/10/24 01:22:15;;;;;;;7.33;2.30;;;17.30;88.20;;;;;;5094359;28;20429;-46
2022/10/24 01:24:47;;;;;;;3.37;2.20;;;17.30;88.30;;;;;;5095936;28;20730;-47
2022/10/24 01:27:27;;;;;;;6.80;1.70;;;17.30;88.40;;;;;;5094218;28;20463;-46
2022/10/24 01:30:07;;;;;;;3.60;1.87;;;17.30;88.50;;;;;;5095605;28;20511;-45
2022/10/24 01:32:42;;;;;;;5.40;2.57;;;17.30;88.60;;;;;;5094404;28;20436;-45
2022/10/24 01:35:14;;;;;;;4.53;1.70;;;17.30;88.70;;;;;;5096439;28;20511;-46
2022/10/24 01:37:45;;;;;;;8.80;2.43;;;17.30;88.80;;;;;;5097239;28;20428;-45
2022/10/24 01:40:21;;;;;;;4.73;2.33;;;17.30;88.90;;;;;;5096536;28;20667;-45
2022/10/24 01:42:48;;;;;;;3.93;2.40;;;17.30;89.00;;;;;;5096289;28;20425;-45
2022/10/24 01:45:21;;;;;;;4.37;2.27;;;17.30;89.10;;;;;;5079416;28;20440;-44
2022/10/24 01:47:51;;;;;;;5.00;2.00;;;17.30;89.20;;;;;;5095548;28;20553;-44
2022/10/24 01:50:18;;;;;;;6.87;2.50;;;17.30;89.50;;;;;;5097107;28;20411;-47
2022/10/24 01:52:45;;;;;;;5.63;2.17;;;17.30;89.70;;;;;;5095826;28;20844;-46
2022/10/24 01:55:11;;;;;;;6.40;2.00;;;17.30;89.80;;;;;;5094430;28;20741;-45
2022/10/24 01:57:38;;;;;;;5.83;2.10;;;17.30;90.00;;;;;;5096951;28;20419;-46
2022/10/24 02:00:17;;;;;;;4.80;2.30;;;17.30;90.10;;;;;;5096605;28;20424;-49
2022/10/24 02:02:45;;;;;;;7.33;2.17;;;17.30;90.10;;;;;;5097012;28;20438;-46
2022/10/24 02:05:21;;;;;;;5.10;3.10;;;17.30;90.20;;;;;;5093482;28;20425;-46
2022/10/24 02:07:50;;;;;;;5.23;2.20;;;17.30;90.30;;;;;;5096114;28;20482;-54
2022/10/24 02:10:20;;;;;;;5.30;2.80;;;17.30;90.30;;;;;;5094370;28;20829;-49
2022/10/24 02:12:51;;;;;;;8.33;2.33;;;17.30;90.30;;;;;;5094736;28;20427;-45
2022/10/24 02:15:32;;;;;;;5.60;2.40;;;17.30;90.30;;;;;;5077616;28;20430;-46
2022/10/24 02:17:58;;;;;;;6.20;2.20;;;17.30;90.30;;;;;;5095116;28;20411;-45
2022/10/24 02:20:28;;;;;;;5.87;2.33;;;17.30;90.40;;;;;;5096119;28;20431;-44
2022/10/24 02:23:03;;;;;;;9.67;2.67;;;17.40;90.40;;;;;;5098066;28;20184;-46
2022/10/24 02:25:37;;;;;;;6.43;2.27;;;17.40;90.40;;;;;;5097280;28;20454;-46
2022/10/24 02:28:20;;;;;;;6.20;2.40;;;17.40;90.40;;;;;;5097960;28;20469;-48
2022/10/24 02:31:11;;;;;;;5.73;2.97;;;17.40;90.40;;;;;;5098619;28;20418;-47
2022/10/24 02:33:39;;;;;;;5.53;2.40;;;17.40;90.80;;;;;;5073524;28;20424;-44
2022/10/24 02:36:06;;;;;;;7.80;2.80;;;17.40;90.50;;;;;;5078699;28;20451;-48
2022/10/24 02:38:34;;;;;;;8.53;2.50;;;17.40;90.50;;;;;;5078816;28;20452;-44
2022/10/24 02:41:02;;;;;;;5.30;2.80;;;17.40;90.60;;;;;;5078766;28;20436;-47
2022/10/24 02:43:28;;;;;;;7.43;2.87;;;17.40;90.70;;;;;;5078797;28;20458;-45
2022/10/24 02:45:55;;;;;;;6.27;2.50;;;17.40;90.80;;;;;;5079755;28;20428;-44
2022/10/24 02:48:26;;;;;;;8.00;2.30;;;17.40;90.90;;;;;;5076843;28;20534;-44
2022/10/24 02:50:52;;;;;;;5.63;2.80;;;17.40;90.90;;;;;;5077743;28;20430;-45
2022/10/24 02:53:19;;;;;;;8.70;3.57;;;17.40;91.00;;;;;;5079134;28;20463;-45
2022/10/24 02:55:45;;;;;;;6.33;3.00;;;17.40;91.20;;;;;;5078813;28;20211;-45
2022/10/24 02:58:11;;;;;;;6.63;2.90;;;17.40;91.30;;;;;;5078547;28;20417;-45
2022/10/24 03:00:36;;;;;;;9.23;3.13;;;17.30;91.60;;;;;;5078982;28;20451;-46
2022/10/24 03:03:02;;;;;;;8.90;3.70;;;17.30;92.00;;;;;;5079607;28;20189;-45
2022/10/24 03:05:28;;;;;;;6.37;2.90;;;17.30;92.30;;;;;;5081359;28;20190;-43
2022/10/24 03:07:53;;;;;;;8.80;2.57;;;17.30;92.50;;;;;;5099563;28;20300;-43
2022/10/24 03:10:19;;;;;;;5.60;2.60;;;17.30;92.70;;;;;;5098296;28;20200;-43
2022/10/24 03:12:45;;;;;;;10.63;3.50;;;17.30;92.80;;;;;;5098648;28;20289;-44
2022/10/24 03:15:10;;;;;;;5.80;2.30;;;17.30;92.90;;;;;;5097363;28;20188;-44
2022/10/24 03:17:36;;;;;;;7.03;3.50;;;17.30;92.90;;;;;;5098234;28;20192;-45
2022/10/24 03:20:02;;;;;;;6.50;3.20;;;17.30;92.90;;;;;;5097625;28;20536;-44
2022/10/24 03:22:28;;;;;;;6.37;3.10;;;17.20;93.00;;;;;;5097786;28;20277;-44
2022/10/24 03:24:53;;;;;;;5.77;2.80;;;17.20;93.00;;;;;;5097568;28;20845;-43
2022/10/24 03:27:19;;;;;;;7.23;2.63;;;17.20;93.00;;;;;;5095937;28;20252;-43
2022/10/24 03:29:44;;;;;;;10.37;2.90;;;17.20;93.10;;;;;;5098287;28;20253;-44
2022/10/24 03:32:10;;;;;;;4.13;2.37;;;17.20;93.20;;;;;;5097402;28;20183;-45
2022/10/24 03:34:36;;;;;;;18.80;3.87;;;17.20;93.20;;;;;;5099036;28;20282;-44
2022/10/24 03:37:02;;;;;;;7.80;4.07;;;17.20;93.20;;;;;;5096303;28;20187;-46
2022/10/24 03:39:28;;;;;;;6.37;3.20;;;17.20;93.30;;;;;;5095347;28;20522;-47
2022/10/24 03:41:53;;;;;;;4.70;2.60;;;17.20;93.30;;;;;;5096107;28;20431;-44
2022/10/24 03:44:19;;;;;;;6.90;3.07;;;17.20;93.30;;;;;;5095949;28;20209;-46
2022/10/24 03:46:44;;;;;;;7.70;3.40;;;17.20;93.30;;;;;;5095322;28;20626;-44
2022/10/24 03:49:10;;;;;;;8.33;3.90;;;17.20;93.40;;;;;;5094633;28;20182;-44
2022/10/24 03:51:36;;;;;;;6.73;3.33;;;17.20;93.40;;;;;;5094075;28;20181;-46
2022/10/24 03:54:01;;;;;;;7.33;2.87;;;17.20;93.40;;;;;;5094470;28;20171;-45
2022/10/24 03:56:27;;;;;;;7.73;3.77;;;17.20;93.40;;;;;;5095297;28;20196;-45
2022/10/24 03:58:52;;;;;;;9.97;3.00;;;17.20;93.40;;;;;;5095330;28;20182;-45
2022/10/24 04:01:18;;;;;;;6.60;3.10;;;17.20;93.40;;;;;;5095100;28;20604;-44
2022/10/24 04:03:46;;;;;;;6.00;2.57;;;17.20;93.40;;;;;;5096348;28;20249;-44
2022/10/24 04:06:13;;;;;;;10.50;4.27;;;17.20;93.40;;;;;;5094432;28;20463;-45
2022/10/24 04:08:38;;;;;;;5.00;2.70;;;17.20;93.40;;;;;;5095536;28;20751;-45
2022/10/24 04:11:05;;;;;;;5.63;2.60;;;17.20;93.40;;;;;;5095997;28;20435;-46
2022/10/24 04:13:30;;;;;;;6.93;2.80;;;17.20;93.40;;;;;;5094937;28;20178;-45
2022/10/24 04:15:56;;;;;;;5.73;2.50;;;17.10;93.40;;;;;;5097414;28;20454;-45
2022/10/24 04:18:22;;;;;;;7.77;3.10;;;17.10;93.40;;;;;;5096709;28;20434;-43
2022/10/24 04:20:47;;;;;;;12.47;4.30;;;17.10;93.40;;;;;;5095503;28;20240;-45
2022/10/24 04:23:13;;;;;;;8.60;2.83;;;17.10;93.40;;;;;;5095027;28;20189;-53
2022/10/24 04:25:39;;;;;;;5.10;2.93;;;17.10;93.40;;;;;;5095847;28;20578;-44
2022/10/24 04:28:05;;;;;;;8.73;2.50;;;17.10;93.40;;;;;;5094675;28;20484;-44
2022/10/24 04:30:31;;;;;;;8.10;3.93;;;17.10;93.40;;;;;;5092010;28;20499;-44
2022/10/24 04:32:57;;;;;;;9.53;2.90;;;17.10;93.40;;;;;;5093245;28;20536;-45
2022/10/24 04:35:24;;;;;;;5.73;2.40;;;17.10;93.30;;;;;;5094333;28;20471;-43
2022/10/24 04:37:50;;;;;;;6.83;2.70;;;17.10;93.30;;;;;;5092146;28;20192;-43
2022/10/24 04:40:16;;;;;;;6.03;3.37;;;17.10;93.30;;;;;;5095467;28;20411;-45
2022/10/24 04:42:41;;;;;;;5.70;3.40;;;17.10;93.30;;;;;;5094256;28;20264;-45
2022/10/24 04:45:07;;;;;;;8.67;2.60;;;17.10;93.30;;;;;;5094359;28;20191;-44
2022/10/24 04:47:33;;;;;;;7.90;2.70;;;17.20;93.40;;;;;;5094947;28;20207;-45
2022/10/24 04:49:59;;;;;;;8.70;3.20;;;17.20;93.40;;;;;;5095457;28;20415;-45
2022/10/24 04:52:24;;;;;;;7.33;2.40;;;17.10;93.30;;;;;;5092671;28;20230;-48
2022/10/24 04:54:50;;;;;;;6.10;3.07;;;17.10;93.30;;;;;;5093471;28;20779;-45
2022/10/24 04:57:15;;;;;;;6.80;3.00;;;17.10;93.30;;;;;;5092797;28;20264;-47
2022/10/24 04:59:41;;;;;;;7.40;2.93;;;17.10;93.30;;;;;;5093902;28;20508;-47
2022/10/24 05:02:07;;;;;;;6.60;3.00;;;17.10;93.30;;;;;;5092958;28;20180;-48
2022/10/24 05:04:32;;;;;;;6.97;2.90;;;17.10;93.30;;;;;;5093285;28;20267;-45
2022/10/24 05:06:58;;;;;;;7.60;2.77;;;17.10;93.20;;;;;;5094363;28;20216;-45
2022/10/24 05:09:23;;;;;;;6.30;2.30;;;17.10;93.20;;;;;;5093425;28;20181;-45
2022/10/24 05:11:50;;;;;;;7.80;3.03;;;17.10;93.10;;;;;;5093342;28;20178;-45
2022/10/24 05:14:15;;;;;;;7.33;4.50;;;17.10;93.20;;;;;;5092911;28;20282;-48
2022/10/24 05:16:41;;;;;;;3.63;2.10;;;17.10;93.30;;;;;;5092141;28;20785;-44
2022/10/24 05:19:07;;;;;;;6.77;3.40;;;17.10;93.40;;;;;;5089901;28;20174;-45
2022/10/24 05:21:32;;;;;;;5.07;2.60;;;17.00;93.40;;;;;;5091896;28;20170;-43
2022/10/24 05:23:58;;;;;;;2.80;1.90;;;17.00;93.50;;;;;;5092356;28;20191;-44
2022/10/24 05:26:24;;;;;;;4.50;2.60;;;17.00;93.70;;;;;;5092936;28;20519;-43
2022/10/24 05:28:49;;;;;;;8.17;3.03;;;17.00;93.80;;;;;;5091353;28;20216;-44
2022/10/24 05:31:15;;;;;;;5.97;2.33;;;17.00;93.90;;;;;;5090451;28;20177;-43
2022/10/24 05:33:40;;;;;;;6.60;2.50;;;17.00;94.00;;;;;;5088560;28;20273;-44
2022/10/24 05:36:06;;;;;;;4.60;2.47;;;17.00;94.10;;;;;;5090793;28;20212;-45
2022/10/24 05:38:32;;;;;;;5.37;2.10;;;17.00;94.30;;;;;;5090268;28;20192;-47
2022/10/24 05:40:58;;;;;;;5.47;2.40;;;16.90;94.40;;;;;;5069015;28;20423;-44
2022/10/24 05:43:24;;;;;;;5.60;3.00;;;16.90;94.50;;;;;;5081544;28;20189;-46
2022/10/24 05:45:50;;;;;;;9.03;2.30;;;16.90;94.70;;;;;;5090553;28;20184;-45
2022/10/24 05:48:16;;;;;;;4.83;2.30;;;16.80;94.80;;;;;;5090651;28;21152;-43
2022/10/24 05:50:41;;;;;;;5.07;2.27;;;16.80;94.90;;;;;;5091525;28;20177;-43
2022/10/24 05:53:08;;;;;;;5.10;2.20;;;16.80;95.00;;;;;;5091388;28;20181;-43
2022/10/24 05:55:34;;;;;;;6.90;2.50;;;16.80;95.10;;;;;;5095291;28;20171;-44
2022/10/24 05:58:00;;;;;;;5.23;2.53;;;16.70;95.20;;;;;;5095941;28;20925;-44
2022/10/24 06:00:26;;;;;;;5.43;2.20;;;16.70;95.30;;;;;;5095330;28;20465;-44
2022/10/24 06:02:52;;;;;;;5.10;2.40;;;16.70;95.40;;;;;;5096215;28;20455;-45
2022/10/24 06:05:18;;;;;;;4.47;2.33;;;16.70;95.50;;;;;;5097093;28;20192;-46
2022/10/24 06:07:45;;;;;;;8.40;3.23;;;16.70;95.60;;;;;;5095743;28;20483;-46
2022/10/24 06:10:12;;;;;;;5.03;2.47;;;16.70;95.70;;;;;;5094497;28;20629;-43
2022/10/24 06:12:37;;;;;;;4.60;2.97;;;16.70;95.80;;;;;;5092342;28;20427;-45
2022/10/24 06:15:06;;;;;;;7.23;3.40;;;16.70;95.90;;;;;;5097106;28;20420;-44
2022/10/24 06:17:32;;;;;;;5.50;2.97;;;16.70;96.20;;;;;;5098026;28;20290;-44
2022/10/24 06:19:57;;;;;;;7.00;3.20;;;16.70;96.60;;;;;;5097028;28;20572;-43
2022/10/24 06:22:24;;;;;;;4.70;3.13;;;16.60;96.70;;;;;;5097743;28;20537;-42
2022/10/24 06:24:49;;;;;;;4.23;2.20;;;16.60;96.90;;;;;;5098149;28;20161;-42
2022/10/24 06:27:15;;;;;;;6.20;2.60;;;16.60;97.10;;;;;;5095732;28;20459;-45
2022/10/24 06:29:41;;;;;;;8.90;2.90;;;16.60;97.30;;;;;;5096963;28;20229;-44
2022/10/24 06:32:07;;;;;;;5.23;2.47;;;16.60;97.40;;;;;;5098568;28;20403;-45
2022/10/24 06:34:34;;;;;;;4.90;2.77;;;16.60;97.60;;;;;;5099168;28;20244;-45
2022/10/24 06:36:59;;;;;;;7.50;3.20;;;16.50;97.60;;;;;;5097015;28;20180;-46
2022/10/24 06:39:25;;;;;;;6.40;2.83;;;16.50;97.70;;;;;;5096353;28;20420;-45
2022/10/24 06:41:51;;;;;;;8.03;2.53;;;16.50;97.70;;;;;;5096246;28;20197;-44
2022/10/24 06:44:16;;;;;;;5.70;2.43;;;16.50;97.80;;;;;;5097378;28;20181;-46
2022/10/24 06:46:42;;;;;;;5.97;2.90;;;16.50;97.90;;;;;;5096084;28;20323;-46
2022/10/24 06:49:08;;;;;;;8.90;3.03;;;16.50;97.90;;;;;;5093366;28;20206;-44
2022/10/24 06:51:34;;;;;;;4.67;2.37;;;16.50;97.90;;;;;;5096575;28;20169;-46
2022/10/24 06:54:00;;;;;;;6.57;2.43;;;16.50;97.80;;;;;;5095510;28;20425;-44
2022/10/24 06:56:25;;;;;;;6.33;2.33;;;16.50;97.80;;;;;;5096852;28;20183;-45
2022/10/24 06:58:51;;;;;;;9.33;3.13;;;16.50;97.80;;;;;;5095891;28;20212;-43
2022/10/24 07:01:19;;;;;;;5.43;2.80;;;16.50;97.80;;;;;;5096194;28;20470;-42
2022/10/24 07:03:45;;;;;;;5.50;2.87;;;16.60;97.80;;;;;;5094649;28;20593;-46
2022/10/24 07:06:15;;;;;;;4.17;2.70;;;16.60;97.70;;;;;;5095404;28;20721;-44
2022/10/24 07:08:41;;;;;;;7.73;2.53;;;16.60;97.60;;;;;;5095521;28;20893;-43
2022/10/24 07:11:06;;;;;;;5.37;2.73;;;16.70;97.70;;;;;;5094138;28;20418;-46
2022/10/24 07:13:32;;;;;;;4.87;2.50;;;16.70;97.70;;;;;;5093929;28;20181;-44
2022/10/24 07:15:58;;;;;;;6.90;2.60;;;16.70;97.70;;;;;;5095723;28;20175;-45
2022/10/24 07:18:23;;;;;;;9.20;3.83;;;16.70;97.70;;;;;;5091306;28;20563;-46
2022/10/24 07:20:49;;;;;;;5.40;2.50;;;16.70;97.70;;;;;;5093996;28;20170;-43
2022/10/24 07:23:15;;;;;;;5.53;3.13;;;16.70;97.80;;;;;;5093124;28;20212;-43
2022/10/24 07:25:40;;;;;;;7.93;3.40;;;16.80;97.90;;;;;;5083061;28;20545;-43
2022/10/24 07:28:07;;;;;;;13.93;3.97;;;16.80;98.30;;;;;;5074906;28;20228;-43
2022/10/24 07:30:33;;;;;;;5.73;2.87;;;16.80;98.10;;;;;;5075906;28;20189;-44
2022/10/24 07:32:59;;;;;;;8.77;2.90;;;16.80;98.00;;;;;;5076445;28;20872;-44
2022/10/24 07:35:25;;;;;;;7.60;2.67;;;16.80;98.00;;;;;;5096015;28;20214;-44
2022/10/24 07:37:52;;;;;;;6.57;2.70;;;16.80;98.00;;;;;;5094814;28;20181;-43
2022/10/24 07:40:18;;;;;;;8.90;3.10;;;16.90;97.90;;;;;;5094375;28;20426;-42
2022/10/24 07:42:43;;;;;;;6.30;3.03;;;16.90;97.90;;;;;;5095939;28;20439;-42
2022/10/24 07:45:09;;;;;;;7.23;3.23;;;16.90;97.90;;;;;;5096114;28;20485;-45
2022/10/24 07:47:35;;;;;;;9.07;3.87;;;17.00;98.00;;;;;;5095829;28;20309;-43
2022/10/24 07:50:01;;;;;;;9.27;2.97;;;17.00;98.00;;;;;;5097264;28;20423;-47
2022/10/24 07:52:26;;;;;;;8.80;2.80;;;16.90;98.00;;;;;;5094957;28;20695;-45
2022/10/24 07:54:53;;;;;;;5.57;3.17;;;16.90;98.00;;;;;;5095199;28;20541;-44
2022/10/24 07:57:19;;;;;;;3.53;2.60;;;16.80;98.00;;;;;;5093891;28;20180;-43
2022/10/24 07:59:45;;;;;;;6.50;3.87;;;16.80;98.10;;;;;;5094783;28;20452;-44
2022/10/24 08:02:11;;;;;;;4.93;3.47;;;16.70;98.20;;;;;;5095109;28;20419;-43
2022/10/24 08:04:38;;;;;;;5.37;2.40;;;16.70;98.30;;;;;;5093091;28;20186;-44
2022/10/24 08:07:03;;;;;;;7.23;2.87;;;16.70;98.50;;;;;;5093822;28;20781;-43
2022/10/24 08:09:29;;;;;;;5.03;2.20;;;16.70;98.50;;;;;;5092183;28;20431;-45
2022/10/24 08:11:54;;;;;;;8.30;2.70;;;16.60;98.50;;;;;;5096581;28;20263;-43
2022/10/24 08:14:20;;;;;;;3.60;2.40;;;16.60;98.70;;;;;;5093456;28;20275;-46
2022/10/24 08:16:45;;;;;;;4.80;2.07;;;16.50;98.80;;;;;;5093824;28;20571;-45
2022/10/24 08:19:12;;;;;;;4.90;2.00;;;16.50;98.90;;;;;;5093383;28;20170;-43
2022/10/24 08:21:38;;;;;;;5.80;2.43;;;16.50;99.00;;;;;;5094352;28;20192;-45
2022/10/24 08:24:04;;;;;;;5.10;3.00;;;16.60;99.00;;;;;;5093376;28;20937;-44
2022/10/24 08:26:29;;;;;;;5.87;2.57;;;16.70;98.90;;;;;;5094336;28;20181;-41
2022/10/24 08:28:56;;;;;;;7.00;2.20;;;16.90;98.70;;;;;;5094840;28;20511;-43
2022/10/24 08:31:24;;;;;;;5.03;2.00;;;17.10;98.60;;;;;;5094187;28;20580;-43
2022/10/24 08:33:54;;;;;;;5.00;2.50;;;17.30;98.40;;;;;;5097527;28;20457;-42
2022/10/24 08:36:22;;;;;;;4.77;2.90;;;17.40;98.10;;;;;;5095964;28;20435;-43
2022/10/24 08:38:48;;;;;;;3.77;2.20;;;17.60;97.80;;;;;;5097633;28;20524;-42
2022/10/24 08:41:31;;;;;;;3.17;1.90;;;17.70;97.60;;;;;;5096998;28;20906;-42
2022/10/24 08:43:59;;;;;;;6.73;2.33;;;17.90;97.40;;;;;;5094266;28;20163;-48
2022/10/24 08:46:50;;;;;;;3.80;2.00;;;18.00;97.10;;;;;;5094583;28;20436;-46
2022/10/24 08:49:27;;;;;;;4.13;2.10;;;18.00;96.90;;;;;;5092780;28;20456;-43
2022/10/24 08:52:14;;;;;;;4.73;2.53;;;18.10;96.80;;;;;;5096225;28;20411;-46
2022/10/24 08:54:41;;;;;;;4.90;2.17;;;18.10;96.70;;;;;;5094164;28;20425;-43
2022/10/24 08:57:33;;;;;;;7.00;2.60;;;18.10;96.60;;;;;;5094408;28;20426;-44
2022/10/24 09:00:03;;;;;;;4.33;2.10;;;18.00;96.50;;;;;;5089830;28;20837;-44
2022/10/24 09:02:36;;;;;;;3.50;2.30;;;18.00;96.50;;;;;;5092581;28;20426;-44
2022/10/24 09:05:15;;;;;;;5.70;2.40;;;18.00;96.60;;;;;;5092550;28;20492;-44
2022/10/24 09:07:43;;;;;;;4.03;2.17;;;17.90;96.60;;;;;;5093152;28;20892;-42
2022/10/24 09:10:16;;;;;;;4.73;1.80;;;17.90;96.50;;;;;;5093250;28;20536;-43
2022/10/24 09:12:41;;;;;;;3.53;2.07;;;17.90;96.50;;;;;;5083165;28;20422;-43
2022/10/24 09:15:21;;;;;;;4.90;2.20;;;17.90;96.50;;;;;;5095111;28;20841;-44
2022/10/24 09:17:47;;;;;;;5.50;2.50;;;17.90;96.40;;;;;;5095135;28;20185;-43
2022/10/24 09:20:26;;;;;;;4.40;2.10;;;17.90;96.30;;;;;;5089882;28;20445;-42
2022/10/24 09:22:53;;;;;;;6.00;2.40;;;17.80;96.30;;;;;;5088558;28;20173;-43
2022/10/24 09:25:22;;;;;;;5.60;1.90;;;17.80;96.40;;;;;;5077343;28;20863;-44
2022/10/24 09:27:49;;;;;;;4.17;1.83;;;17.70;96.60;;;;;;5094149;28;20648;-45
2022/10/24 09:30:25;;;;;;;5.83;2.53;;;17.70;96.70;;;;;;5095324;28;20411;-44
2022/10/24 09:32:53;;;;;;;4.67;2.47;;;17.60;96.90;;;;;;5098264;28;20426;-44
2022/10/24 09:35:27;;;;;;;6.70;2.40;;;17.60;97.10;;;;;;5094655;28;20480;-44
2022/10/24 09:37:56;;;;;;;6.40;2.47;;;17.50;97.30;;;;;;5095782;28;20407;-45
2022/10/24 09:40:24;;;;;;;3.07;1.93;;;17.40;97.50;;;;;;5096402;28;20854;-44
2022/10/24 09:42:52;;;;;;;6.40;3.10;;;17.40;97.70;;;;;;5098248;28;20425;-42
2022/10/24 09:45:31;;;;;;;4.70;2.40;;;17.30;97.80;;;;;;5097050;28;20604;-42
2022/10/24 09:48:02;;;;;;;6.47;3.17;;;17.20;97.90;;;;;;5095692;28;20815;-43
2022/10/24 09:50:29;;;;;;;3.80;2.57;;;17.20;97.90;;;;;;5092412;28;20868;-43
2022/10/24 09:52:57;;;;;;;4.57;2.43;;;17.20;97.80;;;;;;5088636;28;20505;-42
2022/10/24 09:55:27;;;;;;;6.00;2.27;;;17.30;97.80;;;;;;5080652;28;20775;-42
2022/10/24 09:58:02;;;;;;;3.90;2.67;;;17.30;97.60;;;;;;5086555;28;20867;-44
2022/10/24 10:00:32;;;;;;;5.27;2.27;;;17.30;97.60;;;;;;5078382;28;20572;-41
2022/10/24 10:03:08;;;;;;;7.97;3.27;;;17.40;97.70;;;;;;5089125;28;20827;-42
2022/10/24 10:05:53;;;;;;;4.30;2.13;;;17.50;97.60;;;;;;5095359;28;20458;-41
2022/10/24 10:08:28;;;;;;;3.40;2.13;;;17.60;97.40;;;;;;5087914;28;20461;-44
2022/10/24 10:11:14;;;;;;;3.23;1.80;;;17.80;97.20;;;;;;5076809;28;20433;-43
2022/10/24 10:13:48;;;;;;;4.23;2.20;;;17.90;96.90;;;;;;5074320;28;20729;-42
2022/10/24 10:16:32;;;;;;;5.37;2.10;;;18.00;96.50;;;;;;5092757;28;20445;-44
2022/10/24 10:19:16;;;;;;;2.57;2.00;;;18.10;96.20;;;;;;5095937;28;20438;-47
2022/10/24 10:21:54;;;;;;;8.47;2.60;;;18.20;96.00;;;;;;5095424;28;20574;-41
2022/10/24 10:24:25;;;;;;;4.03;2.40;;;18.20;95.80;;;;;;5095350;28;20408;-43
2022/10/24 10:26:52;;;;;;;6.17;2.60;;;18.20;95.70;;;;;;5096871;28;20466;-43
2022/10/24 10:29:18;;;;;;;4.23;1.70;;;18.30;95.60;;;;;;5091834;28;20432;-42
2022/10/24 10:31:59;;;;;;;5.93;2.43;;;18.40;95.30;;;;;;5097873;28;20449;-42
2022/10/24 10:34:35;;;;;;;3.83;1.83;;;18.50;95.10;;;;;;5094926;28;20442;-44
2022/10/24 10:37:26;;;;;;;3.13;2.10;;;18.50;94.80;;;;;;5095876;28;20468;-44
2022/10/24 10:39:58;;;;;;;6.20;1.93;;;18.60;94.90;;;;;;5091572;28;20415;-45
2022/10/24 10:42:32;;;;;;;7.90;2.83;;;18.60;94.60;;;;;;5094730;28;20403;-42
2022/10/24 10:45:02;;;;;;;2.40;1.80;;;18.70;94.50;;;;;;5094453;28;20483;-43
2022/10/24 10:47:52;;;;;;;4.83;1.87;;;18.60;94.20;;;;;;5095641;28;20473;-43
2022/10/24 10:50:29;;;;;;;4.70;2.13;;;18.60;94.30;;;;;;5095692;28;20423;-45
2022/10/24 10:53:33;;;;;;;4.40;1.60;;;18.60;94.00;;;;;;5096069;28;20406;-45
2022/10/24 10:56:12;;;;;;;2.93;1.40;;;18.50;94.00;;;;;;5028750;28;20440;-42
2022/10/24 10:58:46;;;;;;;3.37;1.90;;;18.40;94.00;;;;;;5087731;28;20922;-42
2022/10/24 11:01:19;;;;;;;4.13;1.50;;;18.30;94.00;;;;;;5093986;28;20428;-43
2022/10/24 11:04:23;;;;;;;5.53;2.17;;;18.20;94.10;;;;;;5095326;28;20426;-45
2022/10/24 11:06:56;;;;;;;4.13;1.50;;;18.20;94.30;;;;;;5062261;28;20427;-43
2022/10/24 11:09:21;;;;;;;6.00;2.10;;;18.20;94.40;;;;;;5095063;28;20412;-44
2022/10/24 11:12:04;;;;;;;2.77;1.50;;;18.20;94.30;;;;;;5094834;28;20679;-43
2022/10/24 11:14:44;;;;;;;4.70;1.30;;;18.30;94.30;;;;;;5089854;28;20173;-43
2022/10/24 11:17:16;;;;;;;2.53;1.90;;;18.40;94.00;;;;;;5090399;28;20427;-43
2022/10/24 11:20:07;;;;;;;2.53;1.27;;;18.40;94.00;;;;;;5088143;28;20447;-44
2022/10/24 11:22:41;;;;;;;2.27;1.30;;;18.40;94.10;;;;;;5091748;28;20528;-45
2022/10/24 11:25:34;;;;;;;2.20;1.10;;;18.40;94.00;;;;;;5089924;28;20419;-44
2022/10/24 11:28:10;;;;;;;2.47;1.30;;;18.40;94.00;;;;;;5071958;28;20481;-44
2022/10/24 11:30:50;;;;;;;2.20;1.33;;;18.50;94.00;;;;;;5070540;28;20449;-42
2022/10/24 11:33:23;;;;;;;3.70;1.70;;;18.50;94.00;;;;;;5085832;28;20477;-46
2022/10/24 11:36:18;;;;;;;4.33;1.30;;;18.50;93.90;;;;;;5072393;28;20437;-43
2022/10/24 11:39:09;;;;;;;2.50;1.40;;;18.60;93.90;;;;;;5071554;28;20448;-44
2022/10/24 11:41:47;;;;;;;3.40;1.50;;;18.60;93.70;;;;;;5052279;28;20434;-43
2022/10/24 11:44:34;;;;;;;3.13;1.80;;;18.70;93.70;;;;;;5069758;28;20427;-44
2022/10/24 11:47:22;;;;;;;4.13;1.23;;;18.80;93.70;;;;;;5070708;28;20409;-44
2022/10/24 11:50:09;;;;;;;2.70;1.33;;;18.90;93.80;;;;;;5072653;28;20417;-45
2022/10/24 11:52:37;;;;;;;5.20;1.80;;;19.00;93.30;;;;;;5074096;28;20432;-44
2022/10/24 11:55:17;;;;;;;2.73;1.33;;;19.10;93.30;;;;;;5072336;28;20531;-42
2022/10/24 11:57:45;;;;;;;3.57;1.30;;;19.10;93.20;;;;;;5068773;28;20462;-46
2022/10/24 12:00:30;;;;;;;2.60;1.30;;;19.20;93.20;;;;;;5066837;28;20439;-43
2022/10/24 12:03:36;;;;;;;3.60;1.40;;;19.30;93.00;;;;;;5067206;28;20502;-44
2022/10/24 12:06:26;;;;;;;2.00;1.20;;;19.30;92.70;;;;;;5048992;28;20431;-42
2022/10/24 12:09:11;;;;;;;4.17;1.30;;;19.40;92.60;;;;;;5067664;28;20471;-43
2022/10/24 12:11:48;;;;;;;1.47;1.00;;;19.50;92.40;;;;;;5069322;28;20537;-46
2022/10/24 12:14:25;;;;;;;1.80;1.00;;;19.50;92.10;;;;;;5072062;28;20490;-45
2022/10/24 12:17:14;;;;;;;1.60;0.90;;;19.50;92.10;;;;;;5070722;28;20518;-42
2022/10/24 12:19:41;;;;;;;2.13;1.20;;;19.50;92.10;;;;;;5071411;28;20420;-45
2022/10/24 12:22:25;;;;;;;1.77;0.90;;;19.50;92.10;;;;;;5071251;28;20481;-45
2022/10/24 12:25:03;;;;;;;3.57;1.43;;;19.50;92.10;;;;;;5072686;28;20421;-48
2022/10/24 12:27:39;;;;;;;3.70;1.70;;;19.60;92.10;;;;;;5068520;28;20729;-46
2022/10/24 12:30:17;;;;;;;1.50;1.00;;;19.70;92.00;;;;;;5073660;28;20433;-43
2022/10/24 12:32:49;;;;;;;2.43;1.07;;;19.70;91.90;;;;;;5070806;28;20488;-46
2022/10/24 12:35:45;;;;;;;2.27;1.07;;;19.70;91.60;;;;;;5087311;28;20614;-44
2022/10/24 12:38:34;;;;;;;1.40;1.03;;;19.70;91.70;;;;;;5088545;28;20646;-45
2022/10/24 12:41:08;;;;;;;3.73;1.10;;;19.60;91.70;;;;;;5065430;28;20425;-44
2022/10/24 12:43:44;;;;;;;1.53;0.90;;;19.70;91.70;;;;;;5093198;28;20431;-43
2022/10/24 12:46:15;;;;;;;1.73;1.00;;;19.60;91.60;;;;;;5091531;28;20834;-43
2022/10/24 12:49:01;;;;;;;2.70;1.00;;;19.70;91.60;;;;;;5092980;28;20465;-43
2022/10/24 12:51:41;;;;;;;3.50;1.30;;;19.80;91.60;;;;;;5090494;28;20879;-45
2022/10/24 12:54:12;;;;;;;2.13;1.17;;;20.00;91.50;;;;;;5089920;28;20726;-44
2022/10/24 12:56:50;;;;;;;2.00;1.37;;;20.30;91.30;;;;;;5088129;28;20426;-42
2022/10/24 12:59:16;;;;;;;2.30;1.30;;;20.60;90.90;;;;;;5089859;28;20449;-44
2022/10/24 13:01:42;;;;;;;1.70;1.10;;;20.90;90.30;;;;;;5088062;28;20484;-42
2022/10/24 13:04:26;;;;;;;2.83;1.40;;;21.10;90.10;;;;;;5092447;28;20848;-42